Ana Sayfa
METAR-TAF:

METAR-TAF

Havaalanları :

Sonora Municipal Airport

Sonora, Teksas, Amerika Birleşik Devletleri

Enlem: 30-35-08N, Boylam: 100-38-54W, yükseklik: 652 m

Güncel hava durumu gözlemi

Rapor saat 15:35 UTC de 13 dakika önce yapıldı.
Rüzgar güneydan 9 kt
Sıcaklık 5°C
Nem 38%
Basınç 1030 hPa
Görüş mesafesi: 16.1 km
Açık gökyüzü

METAR: KSOA 271535Z AUTO 18009KT 10SM CLR 05/M08 A3043 RMK AO2

Saat: 09:48 (15:48 UTC)

Tahmin

Rapor saat 11:20 UTC de 4 saat ve 28 dakika önce yapıldı.
Ayın 27'si saat 12 UTC'den ayın 28'si saat 12 UTC'ye kadar geçerli Tahmin
Rüzgar güneydan 5 kt
Görüş mesafesi: 10 km
Açık gökyüzü
Ayın 27'si saat 1700 UTC'den
Rüzgar güney/güneybatıdan 9 kt ve 15 kt'a kadar ani rüzgarlar
Görüş mesafesi: 10 km
Açık gökyüzü
Ayın 27'si saat 2300 UTC'den
Rüzgar güney/güneybatıdan 5 kt
Görüş mesafesi: 10 km
Açık gökyüzü

TAF: KSOA 271120Z 2712/2812 19005KT P6SM SKC FM271700 21009G15KT P6SM SKC FM272300 21005KT P6SM SKC

4.000'den fazla havaalanı için hava durumu gözlemleri ve tahminleri (METAR ve TAF raporları).

Kullanılabilir istasyonlar harita üzerinde sarı ve kırmızı noktalarla gösterilir.

İstasyonun adını görmek için fareyi noktanın üzerinde gezdirin.

Sonrasında hava gözlem ve tahminlerini görmek için tıklayın.

Haritayı değiştirmek için: yaklaştırmak için siyah artı işaretli yeşil düğmeye ve uzaklaştırmak için de eksi işaretli düğmeye hızla tıklayın; bitişik haritalar için yeşil okları kullanın.


METAR-TAF: